Mount Hope, Ohio
Current Conditions -  °F | °C
As of 7:56 AM on Monday 20 Oct 2014 (Local Time) from KBJJ Reporting Station
Overcast Overcast  
Wind Chill: 43°   Ceiling: 9500
Heat Index: 47°   Visibility: 10mi
Dew Point: 38°   Wind: 9mph
Humidity: 71%   Direction: 210°SSW
Pressure: 29.96"   Gusts: NA
Location:  40.62°N, 81.78°W
Report Text: KBJJ 201156Z AUTO 21008KT 10SM OVC095 08/03 A2996 RMK AO2 SLP151 T00830033 10083 20078 56014 TSNO
Loading
Personal Weather Stations






























Interactive Weather Map
Tropical Storm Tracking
New forecast layout! Learn more

10-Day Weather Forecast

Advertisements
Track Severe Weather on mobile